Time;durP1;ratioP1;P1;durP2;ratioP2;P2;SDS_P1;SDS_P2;PMS_P1;PMS_P2;Temp;Humidity;BMP_temperature;BMP_pressure;BME280_temperature;BME280_humidity;BME280_pressure;Samples;Min_cycle;Max_cycle;Signal;HPM_P1;HPM_P2
2023/04/23 00:00:41;;;;;;;9.30;4.00;;;;;;;15.34;90.50;99976.75;6098352;28;20094;-74
2023/04/23 00:03:37;;;;;;;6.30;3.90;;;;;;;15.45;91.53;99990.38;6096319;28;20127;-73
2023/04/23 00:06:34;;;;;;;7.20;3.83;;;;;;;15.35;90.89;99981.91;6098168;28;20035;-77
2023/04/23 00:09:31;;;;;;;6.95;3.92;;;;;;;15.26;90.68;99984.91;6097843;28;20037;-74
2023/04/23 00:12:28;;;;;;;6.38;3.85;;;;;;;14.95;90.35;99942.53;6098303;28;20024;-75
2023/04/23 00:15:24;;;;;;;9.27;4.57;;;;;;;15.25;91.88;99986.72;6097206;28;20029;-76
2023/04/23 00:18:19;;;;;;;6.70;4.30;;;;;;;15.12;92.12;99967.09;6098295;28;20028;-75
2023/04/23 00:21:15;;;;;;;10.47;4.60;;;;;;;15.01;92.89;99979.16;6098033;28;20116;-75
2023/04/23 00:24:10;;;;;;;7.05;4.13;;;;;;;14.97;92.77;99974.41;6096657;28;20029;-76
2023/04/23 00:27:05;;;;;;;9.57;4.60;;;;;;;14.86;93.32;99975.75;6097715;28;20036;-76
2023/04/23 00:30:02;;;;;;;7.30;4.23;;;;;;;14.72;94.05;99973.97;6097704;28;20025;-74
2023/04/23 00:32:58;;;;;;;7.80;4.45;;;;;;;14.67;94.30;99966.53;6096281;28;20025;-75
2023/04/23 00:35:53;;;;;;;8.87;4.40;;;;;;;14.67;94.85;99971.88;6097264;28;20032;-73
2023/04/23 00:38:48;;;;;;;6.90;3.93;;;;;;;14.49;95.49;99957.28;6098600;28;20047;-74
2023/04/23 00:41:44;;;;;;;10.83;4.27;;;;;;;14.53;97.14;99971.91;6119985;28;20091;-74
2023/04/23 00:44:40;;;;;;;7.10;4.47;;;;;;;14.34;98.08;99969.88;6119005;28;20029;-75
2023/04/23 00:47:35;;;;;;;9.98;4.95;;;;;;;14.27;99.79;99981.25;6107553;28;20024;-73
2023/04/23 00:50:31;;;;;;;9.77;4.63;;;;;;;13.98;100.00;99951.97;6098358;28;20039;-75
2023/04/23 00:53:26;;;;;;;10.10;5.47;;;;;;;14.07;100.00;99969.53;6103304;28;20508;-73
2023/04/23 00:56:22;;;;;;;10.87;5.17;;;;;;;13.99;100.00;99974.97;6121676;28;20031;-74
2023/04/23 00:59:18;;;;;;;9.98;5.00;;;;;;;13.97;100.00;99981.50;6134919;28;20036;-72
2023/04/23 01:02:13;;;;;;;10.88;5.18;;;;;;;13.84;100.00;99960.81;6095947;28;20473;-74
2023/04/23 01:05:10;;;;;;;10.88;5.68;;;;;;;13.78;100.00;99976.75;6095314;28;20476;-74
2023/04/23 01:08:05;;;;;;;8.10;5.50;;;;;;;13.52;100.00;99946.06;6097166;28;20048;-74
2023/04/23 01:11:01;;;;;;;8.10;5.13;;;;;;;13.56;100.00;99967.84;6097158;28;20032;-75
2023/04/23 01:13:58;;;;;;;10.48;5.30;;;;;;;13.44;100.00;99961.28;6096210;28;20129;-75
2023/04/23 01:16:53;;;;;;;8.40;5.20;;;;;;;13.61;100.00;99970.75;6096140;28;20029;-74
2023/04/23 01:19:48;;;;;;;10.03;5.10;;;;;;;13.41;100.00;99964.31;6096578;28;20475;-74
2023/04/23 01:22:44;;;;;;;9.27;4.93;;;;;;;13.33;100.00;99957.25;6096670;28;20426;-73
2023/04/23 01:25:40;;;;;;;8.02;4.70;;;;;;;13.51;100.00;99971.03;6096435;28;20036;-72
2023/04/23 01:28:35;;;;;;;8.13;4.90;;;;;;;13.36;100.00;99964.03;6096817;28;20025;-73
2023/04/23 01:31:31;;;;;;;11.50;5.35;;;;;;;13.33;100.00;99961.72;6096685;28;20357;-76
2023/04/23 01:34:26;;;;;;;8.80;4.85;;;;;;;13.62;100.00;99972.41;6096560;28;20043;-73
2023/04/23 01:37:22;;;;;;;11.10;5.23;;;;;;;13.46;100.00;99968.09;6106707;28;20031;-73
2023/04/23 01:40:18;;;;;;;9.82;5.47;;;;;;;13.37;100.00;99947.06;6096962;28;20037;-77
2023/04/23 01:43:14;;;;;;;8.75;5.22;;;;;;;13.40;100.00;99960.81;6095964;28;20571;-77
2023/04/23 01:46:09;;;;;;;8.95;5.05;;;;;;;13.46;100.00;99968.09;6110117;28;20064;-75
2023/04/23 01:49:05;;;;;;;11.30;4.33;;;;;;;13.50;100.00;99957.91;6121200;28;20375;-74
2023/04/23 01:52:00;;;;;;;11.15;4.65;;;;;;;13.43;100.00;99954.28;6131605;28;20029;-75
2023/04/23 01:54:55;;;;;;;8.10;5.37;;;;;;;13.44;100.00;99950.63;6108429;28;20039;-74
2023/04/23 01:57:51;;;;;;;8.83;4.53;;;;;;;13.50;100.00;99963.22;6101332;28;20034;-74
2023/04/23 02:00:46;;;;;;;10.40;4.70;;;;;;;13.51;100.00;99951.53;6101440;28;20040;-74
2023/04/23 02:03:41;;;;;;;7.53;4.13;;;;;;;13.50;100.00;99963.22;6100504;28;20378;-74
2023/04/23 02:06:37;;;;;;;7.93;4.40;;;;;;;13.43;100.00;99951.63;6101129;28;20033;-74
2023/04/23 02:09:32;;;;;;;9.20;4.35;;;;;;;13.46;100.00;99961.94;6101187;28;20064;-74
2023/04/23 02:12:27;;;;;;;9.00;4.73;;;;;;;13.48;100.00;99959.94;6100999;28;20081;-72
2023/04/23 02:15:23;;;;;;;11.40;4.53;;;;;;;13.41;100.00;99959.81;6100577;28;20353;-74
2023/04/23 02:18:18;;;;;;;8.50;4.20;;;;;;;13.35;100.00;99959.72;6100993;28;20158;-76
2023/04/23 02:21:14;;;;;;;7.27;4.43;;;;;;;13.27;100.00;99951.81;6100572;28;20043;-75
2023/04/23 02:24:09;;;;;;;11.02;4.97;;;;;;;13.34;100.00;99984.72;6100318;28;20028;-73
2023/04/23 02:27:05;;;;;;;8.07;4.20;;;;;;;13.26;100.00;99958.16;6100186;28;20040;-73
2023/04/23 02:30:00;;;;;;;9.37;4.63;;;;;;;13.20;100.00;99977.50;6100852;28;20039;-74
2023/04/23 02:32:56;;;;;;;6.57;3.85;;;;;;;13.05;100.00;99972.94;6100181;28;20032;-73
2023/04/23 02:35:51;;;;;;;7.90;4.20;;;;;;;12.99;100.00;99986.97;6099711;28;20080;-73
2023/04/23 02:38:48;;;;;;;7.27;4.20;;;;;;;12.98;100.00;99995.16;6100182;28;20029;-72
2023/04/23 02:41:43;;;;;;;11.95;5.32;;;;;;;12.81;100.00;99998.94;6100159;28;20114;-74
2023/04/23 02:44:38;;;;;;;15.03;7.90;;;;;;;12.67;100.00;99995.22;6099559;28;20033;-75
2023/04/23 02:47:34;;;;;;;17.80;8.87;;;;;;;12.52;100.00;99994.31;6099867;28;20032;-75
2023/04/23 02:50:29;;;;;;;21.40;9.40;;;;;;;12.40;100.00;99985.91;6100307;28;20057;-74
2023/04/23 02:53:25;;;;;;;21.27;10.07;;;;;;;12.44;100.00;100003.19;6108309;28;20040;-74
2023/04/23 02:56:20;;;;;;;19.98;10.68;;;;;;;12.30;100.00;99984.47;6099756;28;20021;-75
2023/04/23 02:59:15;;;;;;;19.20;9.17;;;;;;;12.42;100.00;100001.69;6100057;28;20068;-75
2023/04/23 03:02:11;;;;;;;18.93;10.40;;;;;;;12.19;100.00;99993.69;6099532;28;20391;-73
2023/04/23 03:05:06;;;;;;;21.10;11.27;;;;;;;12.24;100.00;100017.06;6099293;28;20594;-75
2023/04/23 03:08:02;;;;;;;25.58;11.60;;;;;;;12.13;100.00;100020.94;6101542;28;20025;-75
2023/04/23 03:10:57;;;;;;;24.77;11.37;;;;;;;12.05;100.00;100006.84;6123518;28;20032;-73
2023/04/23 03:13:52;;;;;;;26.77;12.20;;;;;;;12.07;100.00;100020.78;6105981;28;20025;-74
2023/04/23 03:16:48;;;;;;;28.03;12.50;;;;;;;11.89;100.00;99997.97;6099180;28;20033;-72
2023/04/23 03:19:43;;;;;;;23.63;11.07;;;;;;;11.90;100.00;100007.56;6099615;28;20048;-73
2023/04/23 03:22:38;;;;;;;27.37;13.33;;;;;;;11.80;100.00;99998.16;6099728;28;20439;-73
2023/04/23 03:25:34;;;;;;;28.10;13.17;;;;;;;11.72;100.00;99996.34;6098717;28;20025;-72
2023/04/23 03:28:30;;;;;;;25.48;12.68;;;;;;;11.61;100.00;99993.19;6099289;28;20029;-73
2023/04/23 03:31:25;;;;;;;29.58;12.98;;;;;;;11.63;100.00;100012.47;6099159;28;20117;-72
2023/04/23 03:34:20;;;;;;;29.63;13.23;;;;;;;11.31;100.00;99979.66;6098894;28;20032;-74
2023/04/23 03:37:15;;;;;;;34.83;13.47;;;;;;;11.36;100.00;100005.69;6099123;28;20087;-76
2023/04/23 03:40:11;;;;;;;31.13;13.07;;;;;;;11.24;100.00;100005.25;6099042;28;20383;-72
2023/04/23 03:43:06;;;;;;;30.33;13.18;;;;;;;11.12;100.00;100001.25;6098845;28;20044;-74
2023/04/23 03:46:01;;;;;;;35.07;14.37;;;;;;;11.13;100.00;100010.88;6098441;28;20051;-74
2023/04/23 03:48:57;;;;;;;31.63;13.63;;;;;;;11.02;100.00;100002.41;6099176;28;20024;-74
2023/04/23 03:51:52;;;;;;;33.33;14.37;;;;;;;11.03;100.00;99994.31;6098807;28;20112;-74
2023/04/23 03:54:47;;;;;;;34.33;14.40;;;;;;;10.90;100.00;99998.47;6111981;28;20038;-76
2023/04/23 03:57:43;;;;;;;37.63;15.23;;;;;;;10.99;100.00;100018.66;6098694;28;20056;-75
2023/04/23 04:00:38;;;;;;;37.17;14.60;;;;;;;11.01;100.00;100028.13;6098340;28;20136;-72
2023/04/23 04:03:33;;;;;;;36.10;14.63;;;;;;;10.90;100.00;100011.72;6098064;28;20693;-74
2023/04/23 04:06:28;;;;;;;31.27;13.90;;;;;;;11.01;100.00;100035.25;6098398;28;20032;-73
2023/04/23 04:09:24;;;;;;;34.87;15.13;;;;;;;11.00;100.00;100041.56;6097935;28;20647;-73
2023/04/23 04:12:19;;;;;;;33.57;14.30;;;;;;;11.00;100.00;100044.22;6098435;28;20031;-75
2023/04/23 04:15:16;;;;;;;34.00;15.45;;;;;;;10.88;100.00;100026.94;6096995;28;20037;-74
2023/04/23 04:18:11;;;;;;;38.55;15.48;;;;;;;10.98;100.00;100046.22;6098412;28;20460;-75
2023/04/23 04:21:06;;;;;;;33.43;14.03;;;;;;;11.02;100.00;100045.72;6098244;28;20034;-72
2023/04/23 04:24:03;;;;;;;35.33;14.47;;;;;;;10.94;100.00;100047.53;6096926;28;20056;-74
2023/04/23 04:26:58;;;;;;;38.38;15.77;;;;;;;10.86;100.00;100032.44;6098049;28;20124;-73
2023/04/23 04:29:54;;;;;;;32.07;14.37;;;;;;;10.92;100.00;100045.03;6097624;28;20036;-74
2023/04/23 04:32:49;;;;;;;37.20;16.50;;;;;;;10.88;100.00;100038.41;6101118;28;20032;-75
2023/04/23 04:35:47;;;;;;;38.30;16.02;;;;;;;10.88;100.00;100046.34;6097034;28;20032;-74
2023/04/23 04:38:43;;;;;;;37.88;16.58;;;;;;;10.88;100.00;100050.81;6097862;28;20476;-75
2023/04/23 04:41:38;;;;;;;36.57;16.27;;;;;;;10.85;100.00;100059.94;6097940;28;20090;-72
2023/04/23 04:44:36;;;;;;;39.50;16.10;;;;;;;10.92;100.00;100065.44;6096996;28;20268;-74
2023/04/23 04:47:31;;;;;;;42.40;18.70;;;;;;;10.89;100.00;100055.16;6097996;28;20259;-75
2023/04/23 04:50:26;;;;;;;34.97;15.48;;;;;;;10.99;100.00;100066.41;6097418;28;20029;-74
2023/04/23 04:53:22;;;;;;;37.60;16.13;;;;;;;11.01;100.00;100069.72;6103530;28;20036;-73
2023/04/23 04:56:17;;;;;;;36.10;16.58;;;;;;;10.89;100.00;100057.81;6121386;28;20041;-75
2023/04/23 04:59:12;;;;;;;39.57;17.03;;;;;;;10.97;100.00;100079.03;6121467;28;20047;-73
2023/04/23 05:02:08;;;;;;;40.73;17.30;;;;;;;10.80;100.00;100054.31;6115543;28;20029;-73
2023/04/23 05:05:03;;;;;;;40.63;17.07;;;;;;;10.97;100.00;100071.06;6096390;28;20534;-73
2023/04/23 05:08:01;;;;;;;38.38;16.13;;;;;;;10.98;100.00;100072.75;6097524;28;20025;-73
2023/04/23 05:10:56;;;;;;;42.58;17.08;;;;;;;10.95;100.00;100073.06;6096943;28;20051;-73
2023/04/23 05:13:51;;;;;;;41.23;17.87;;;;;;;10.96;100.00;100072.06;6103969;28;20024;-73
2023/04/23 05:16:46;;;;;;;36.43;16.57;;;;;;;10.87;100.00;100073.06;6097048;28;20094;-75
2023/04/23 05:19:42;;;;;;;38.13;16.07;;;;;;;10.94;100.00;100080.19;6096607;28;20037;-74
2023/04/23 05:22:38;;;;;;;40.23;16.90;;;;;;;11.10;100.00;100103.25;6098568;28;20139;-75
2023/04/23 05:25:34;;;;;;;43.17;18.17;;;;;;;11.05;100.00;100087.00;6096425;28;20033;-74
2023/04/23 05:28:30;;;;;;;36.92;16.75;;;;;;;11.06;100.00;100093.97;6024330;28;21505;-74
2023/04/23 05:31:25;;;;;;;47.40;18.40;;;;;;;11.03;100.00;100083.69;6044499;28;20046;-73
2023/04/23 05:34:20;;;;;;;38.20;15.90;;;;;;;10.95;100.00;100102.25;6054385;28;20110;-74
2023/04/23 05:37:16;;;;;;;45.07;17.67;;;;;;;11.01;100.00;100104.22;6070363;28;20025;-74
2023/04/23 05:40:11;;;;;;;39.00;16.33;;;;;;;10.94;100.00;100117.31;6067964;28;20034;-73
2023/04/23 05:43:06;;;;;;;44.45;17.25;;;;;;;11.04;100.00;100109.19;6049021;28;20037;-73
2023/04/23 05:46:05;;;;;;;43.57;17.67;;;;;;;11.02;100.00;100103.25;6052976;28;20026;-74
2023/04/23 05:49:00;;;;;;;41.70;17.40;;;;;;;10.95;100.00;100096.94;6053533;28;20034;-72
2023/04/23 05:51:58;;;;;;;38.43;16.13;;;;;;;11.02;100.00;100113.84;6053384;28;20030;-73
2023/04/23 05:54:53;;;;;;;43.58;16.60;;;;;;;11.10;100.00;100100.59;6052741;28;20037;-73
2023/04/23 05:57:48;;;;;;;40.63;17.25;;;;;;;11.04;100.00;100125.13;6053276;28;20034;-74
2023/04/23 06:00:44;;;;;;;40.57;16.17;;;;;;;10.98;100.00;100128.44;6053348;28;20053;-73
2023/04/23 06:03:44;;;;;;;45.70;16.50;;;;;;;10.86;100.00;100113.81;6052026;28;20355;-74
2023/04/23 06:06:39;;;;;;;42.25;17.17;;;;;;;10.82;100.00;100123.91;6063438;28;20037;-73
2023/04/23 06:09:34;;;;;;;43.83;18.50;;;;;;;10.76;100.00;100132.53;6071595;28;20036;-73
2023/04/23 06:12:30;;;;;;;46.65;17.88;;;;;;;10.71;100.00;100122.41;6058021;28;20032;-75
2023/04/23 06:15:26;;;;;;;43.72;16.73;;;;;;;10.73;100.00;100124.91;6055873;28;20045;-74
2023/04/23 06:18:21;;;;;;;41.05;17.40;;;;;;;10.85;100.00;100141.31;6036605;28;20034;-73
2023/04/23 06:21:16;;;;;;;46.90;18.03;;;;;;;10.77;100.00;100132.38;6054099;28;20033;-73
2023/04/23 06:24:12;;;;;;;40.53;17.27;;;;;;;10.91;100.00;100138.03;6055531;28;20374;-74
2023/04/23 06:27:07;;;;;;;41.33;16.20;;;;;;;10.72;100.00;100145.28;6052587;28;20284;-74
2023/04/23 06:30:03;;;;;;;39.53;16.77;;;;;;;10.59;100.00;100141.44;6052871;28;20380;-75
2023/04/23 06:32:58;;;;;;;38.72;16.42;;;;;;;10.64;100.00;100141.78;6060140;28;20030;-74
2023/04/23 06:35:54;;;;;;;39.50;15.87;;;;;;;10.59;100.00;100144.06;6051709;28;20037;-75
2023/04/23 06:38:49;;;;;;;41.07;15.30;;;;;;;10.57;100.00;100144.22;6051529;28;20040;-72
2023/04/23 06:41:44;;;;;;;42.13;15.80;;;;;;;10.57;100.00;100156.66;6064868;28;20280;-75
2023/04/23 06:44:39;;;;;;;46.03;15.80;;;;;;;10.61;100.00;100153.53;6058554;28;20041;-74
2023/04/23 06:47:35;;;;;;;36.60;16.20;;;;;;;10.66;100.00;100156.53;6064388;28;20272;-74
2023/04/23 06:50:30;;;;;;;43.47;16.97;;;;;;;10.72;100.00;100157.72;6076484;28;20033;-75
2023/04/23 06:53:25;;;;;;;34.97;15.23;;;;;;;10.67;100.00;100130.84;6061419;28;20393;-75
2023/04/23 06:56:22;;;;;;;40.70;16.30;;;;;;;10.76;100.00;100136.00;6049742;28;20378;-74
2023/04/23 06:59:18;;;;;;;39.42;16.40;;;;;;;10.85;100.00;100149.28;6050201;28;20026;-75
2023/04/23 07:02:13;;;;;;;39.88;15.55;;;;;;;10.93;100.00;100146.66;6055513;28;20044;-73
2023/04/23 07:05:09;;;;;;;38.17;15.33;;;;;;;10.98;100.00;100136.41;6057624;28;20034;-74
2023/04/23 07:08:04;;;;;;;39.42;16.20;;;;;;;10.96;100.00;100125.94;6050756;28;20018;-75
2023/04/23 07:11:00;;;;;;;38.37;15.60;;;;;;;11.11;100.00;100134.09;6068520;28;20116;-74
2023/04/23 07:13:57;;;;;;;37.67;15.65;;;;;;;11.15;100.00;100146.03;6050342;28;20041;-76
2023/04/23 07:16:53;;;;;;;41.08;17.67;;;;;;;11.31;100.00;100146.06;6051078;28;20026;-74
2023/04/23 07:19:48;;;;;;;38.08;14.70;;;;;;;11.46;100.00;100122.34;6051391;28;20038;-74
2023/04/23 07:22:45;;;;;;;36.93;14.97;;;;;;;11.80;100.00;100131.81;6072566;28;20039;-74
2023/04/23 07:25:41;;;;;;;33.28;14.50;;;;;;;12.30;100.00;100112.94;6068539;28;20026;-75
2023/04/23 07:28:36;;;;;;;32.30;14.97;;;;;;;12.62;100.00;100103.97;6039945;28;20034;-76
2023/04/23 07:31:31;;;;;;;33.23;14.03;;;;;;;12.73;97.97;100110.72;6043054;28;20113;-76
2023/04/23 07:34:26;;;;;;;32.73;13.47;;;;;;;13.09;96.60;100099.41;6061957;28;20034;-76
2023/04/23 07:37:22;;;;;;;29.43;12.93;;;;;;;13.04;96.02;100111.56;6050317;28;20032;-76
2023/04/23 07:40:17;;;;;;;28.43;13.63;;;;;;;13.18;96.45;100102.00;6051017;28;20288;-75
2023/04/23 07:43:12;;;;;;;30.57;13.60;;;;;;;13.15;94.88;100113.84;6050750;28;20519;-76
2023/04/23 07:46:08;;;;;;;30.90;13.48;;;;;;;13.19;94.24;100101.81;6044718;28;20040;-75
2023/04/23 07:49:03;;;;;;;27.53;14.17;;;;;;;13.60;94.74;100123.63;6051337;28;20041;-76
2023/04/23 07:51:58;;;;;;;30.70;13.63;;;;;;;13.89;91.37;100118.34;6053272;28;20040;-74
2023/04/23 07:54:54;;;;;;;30.67;14.20;;;;;;;14.42;90.21;100119.13;6049681;28;20112;-75
2023/04/23 07:57:50;;;;;;;30.10;13.60;;;;;;;14.30;87.02;100110.72;6050469;28;20295;-74
2023/04/23 08:00:45;;;;;;;28.73;13.77;;;;;;;14.44;85.85;100101.94;6052159;28;20033;-76
2023/04/23 08:03:40;;;;;;;29.27;14.63;;;;;;;14.29;85.58;100119.78;6068649;28;20061;-75
2023/04/23 08:06:35;;;;;;;27.37;13.10;;;;;;;14.67;85.00;100124.00;6053597;28;20034;-76
2023/04/23 08:09:31;;;;;;;24.88;12.32;;;;;;;14.66;80.79;100116.16;6050341;28;20072;-75
2023/04/23 08:12:26;;;;;;;21.87;10.93;;;;;;;14.74;80.77;100108.03;6050209;28;20034;-75
2023/04/23 08:15:21;;;;;;;28.57;12.03;;;;;;;14.94;79.45;100109.09;6047290;28;20029;-74
2023/04/23 08:18:17;;;;;;;22.27;10.97;;;;;;;14.70;79.10;100098.78;6050463;28;20036;-76
2023/04/23 08:21:12;;;;;;;26.23;12.70;;;;;;;14.92;80.97;100113.78;6050114;28;20272;-75
2023/04/23 08:24:08;;;;;;;22.60;10.88;;;;;;;14.54;79.34;100099.00;6049766;28;20038;-75
2023/04/23 08:27:03;;;;;;;22.53;10.30;;;;;;;14.91;78.10;100101.47;6050018;28;20030;-75
2023/04/23 08:29:58;;;;;;;21.43;10.23;;;;;;;14.95;76.43;100094.72;6050035;28;20092;-74
2023/04/23 08:32:53;;;;;;;24.77;11.07;;;;;;;14.86;78.17;100085.19;6048516;28;20458;-75
2023/04/23 08:35:49;;;;;;;24.60;11.93;;;;;;;14.91;75.69;100090.78;6049137;28;20026;-76
2023/04/23 08:38:44;;;;;;;18.88;9.25;;;;;;;15.24;73.69;100078.59;6050060;28;20076;-75
2023/04/23 08:41:43;;;;;;;18.10;9.38;;;;;;;15.37;71.46;100068.03;6049647;28;20033;-75
2023/04/23 08:44:41;;;;;;;23.50;9.77;;;;;;;15.58;73.70;100079.72;6048238;28;20065;-75
2023/04/23 08:47:41;;;;;;;21.17;9.95;;;;;;;15.98;69.97;100068.31;6049333;28;20045;-75
2023/04/23 08:50:38;;;;;;;19.55;10.18;;;;;;;16.03;69.04;100073.88;6049754;28;20045;-74
2023/04/23 08:53:33;;;;;;;20.70;10.30;;;;;;;15.94;66.59;100091.94;6040608;28;20030;-75
2023/04/23 08:56:28;;;;;;;21.27;9.80;;;;;;;15.61;67.28;100101.56;6043867;28;20377;-74
2023/04/23 08:59:25;;;;;;;18.02;9.32;;;;;;;15.70;69.63;100099.56;6049810;28;20536;-75
2023/04/23 09:02:21;;;;;;;20.95;10.05;;;;;;;15.55;66.87;100096.13;6049216;28;20049;-75
2023/04/23 09:05:17;;;;;;;20.77;10.35;;;;;;;15.68;70.02;100098.94;6036869;28;20033;-74
2023/04/23 09:08:12;;;;;;;19.73;9.27;;;;;;;15.58;69.00;100096.59;6049706;28;20053;-75
2023/04/23 09:11:07;;;;;;;21.90;9.57;;;;;;;15.67;68.63;100106.13;6049442;28;20108;-75
2023/04/23 09:14:03;;;;;;;22.67;9.60;;;;;;;16.01;66.54;100091.94;6047622;28;20049;-74
2023/04/23 09:16:59;;;;;;;20.40;9.65;;;;;;;15.93;66.11;100084.91;6049700;28;20026;-74
2023/04/23 09:19:55;;;;;;;20.38;9.90;;;;;;;16.29;65.33;100090.06;6047833;28;20030;-75
2023/04/23 09:22:51;;;;;;;20.05;9.73;;;;;;;16.72;65.74;100088.00;6049675;28;20034;-74
2023/04/23 09:25:46;;;;;;;18.13;9.20;;;;;;;16.62;62.19;100069.66;6057425;28;20025;-74
2023/04/23 09:28:42;;;;;;;15.77;8.37;;;;;;;16.70;60.69;100070.50;6049621;28;20029;-75
2023/04/23 09:31:37;;;;;;;15.80;7.87;;;;;;;16.76;60.94;100070.53;6050559;28;20457;-74
2023/04/23 09:34:35;;;;;;;11.18;5.03;;;;;;;16.85;53.64;100080.00;6067755;28;20056;-74
2023/04/23 09:37:31;;;;;;;13.15;6.30;;;;;;;17.06;52.77;100087.09;6049373;28;20476;-74
2023/04/23 09:40:26;;;;;;;12.02;6.30;;;;;;;17.08;57.12;100068.94;6049215;28;20022;-74
2023/04/23 09:43:21;;;;;;;14.03;6.77;;;;;;;17.20;55.60;100064.66;6048871;28;20030;-75
2023/04/23 09:46:17;;;;;;;17.40;8.37;;;;;;;17.18;55.29;100061.31;6049245;28;20083;-74
2023/04/23 09:49:13;;;;;;;14.37;7.30;;;;;;;17.45;56.02;100056.81;6048338;28;20038;-74
2023/04/23 09:52:08;;;;;;;16.00;8.18;;;;;;;17.72;56.07;100071.88;6046695;28;20437;-74
2023/04/23 09:55:04;;;;;;;17.30;8.50;;;;;;;17.47;56.01;100055.59;6044164;28;20034;-73
2023/04/23 09:58:02;;;;;;;15.90;7.93;;;;;;;17.28;55.83;100067.13;6048654;28;20041;-74
2023/04/23 10:01:06;;;;;;;18.08;8.85;;;;;;;17.51;56.67;100056.81;6048833;28;20485;-75
2023/04/23 10:04:01;;;;;;;18.58;7.93;;;;;;;17.51;55.62;100056.81;6048728;28;20097;-74
2023/04/23 10:07:02;;;;;;;14.77;7.20;;;;;;;17.89;55.68;100058.84;6048190;28;20041;-73
2023/04/23 10:09:57;;;;;;;14.35;7.40;;;;;;;18.24;53.65;100052.97;6049309;28;20104;-74
2023/04/23 10:12:53;;;;;;;13.95;7.60;;;;;;;17.97;55.41;100058.63;6049284;28;20038;-74
2023/04/23 10:15:49;;;;;;;11.30;5.20;;;;;;;18.16;50.01;100057.75;6052518;28;20484;-75
2023/04/23 10:18:44;;;;;;;11.15;5.65;;;;;;;18.11;51.12;100055.72;6052146;28;20037;-75
2023/04/23 10:21:40;;;;;;;11.60;5.75;;;;;;;18.32;52.58;100063.50;6068385;28;20032;-75
2023/04/23 10:24:40;;;;;;;12.00;6.55;;;;;;;18.31;50.80;100059.19;6042454;28;20030;-75
2023/04/23 10:27:47;;;;;;;12.63;6.30;;;;;;;18.41;51.78;100062.22;6069810;28;20041;-74
2023/04/23 10:30:43;;;;;;;9.95;5.47;;;;;;;18.46;49.38;100064.25;6095898;28;20013;-73
2023/04/23 10:33:39;;;;;;;12.55;4.97;;;;;;;18.40;48.41;100049.00;6084538;28;20037;-75
2023/04/23 10:36:34;;;;;;;8.77;4.95;;;;;;;18.47;48.95;100033.69;6075274;28;20033;-74
2023/04/23 10:39:32;;;;;;;8.55;4.28;;;;;;;18.43;48.27;100037.84;6056536;28;20108;-74
2023/04/23 10:42:27;;;;;;;7.57;4.35;;;;;;;18.64;47.96;100037.59;6043921;28;20041;-74
2023/04/23 10:45:23;;;;;;;8.97;4.17;;;;;;;18.51;48.45;100051.03;6048653;28;20038;-72
2023/04/23 10:48:19;;;;;;;8.87;4.07;;;;;;;18.68;49.62;100046.84;6052632;28;20132;-74
2023/04/23 10:51:15;;;;;;;8.73;4.68;;;;;;;18.97;49.81;100030.13;6051106;28;20045;-74
2023/04/23 10:54:14;;;;;;;9.05;4.78;;;;;;;19.05;49.26;100025.53;6045392;28;20041;-73
2023/04/23 10:57:10;;;;;;;9.25;5.00;;;;;;;18.75;47.55;100015.38;6039341;28;20054;-74
2023/04/23 11:00:06;;;;;;;8.77;4.25;;;;;;;18.84;48.20;100037.44;6052271;28;20400;-74
2023/04/23 11:03:01;;;;;;;11.60;5.13;;;;;;;18.93;48.51;100050.41;6057424;28;20018;-74
2023/04/23 11:06:03;;;;;;;9.27;4.83;;;;;;;19.24;50.42;100022.69;6051255;28;20050;-74
2023/04/23 11:08:58;;;;;;;8.35;5.32;;;;;;;19.14;46.29;100032.28;6051345;28;20087;-74
2023/04/23 11:11:54;;;;;;;8.17;4.23;;;;;;;19.04;47.13;100027.41;6051759;28;20041;-75
2023/04/23 11:14:50;;;;;;;9.23;4.93;;;;;;;19.25;47.31;100026.19;6051320;28;20068;-74
2023/04/23 11:17:47;;;;;;;7.85;4.75;;;;;;;19.75;45.01;100035.94;6051637;28;20446;-74
2023/04/23 11:20:42;;;;;;;8.82;4.53;;;;;;;19.77;45.94;100033.84;6050982;28;20461;-72
2023/04/23 11:23:37;;;;;;;9.93;5.57;;;;;;;19.75;45.95;100019.78;6050736;28;20045;-74
2023/04/23 11:26:33;;;;;;;7.53;4.07;;;;;;;19.15;46.24;100015.13;6050309;28;20033;-75
2023/04/23 11:29:29;;;;;;;6.65;3.88;;;;;;;19.77;46.97;100025.75;6051765;28;20397;-74
2023/04/23 11:32:26;;;;;;;6.70;3.80;;;;;;;20.40;44.41;100017.41;6051523;28;20040;-75
2023/04/23 11:35:27;;;;;;;8.68;4.22;;;;;;;20.35;42.51;99996.56;6051003;28;20100;-74
2023/04/23 11:38:22;;;;;;;6.97;3.58;;;;;;;20.35;45.30;99995.72;6050602;28;20034;-73
2023/04/23 11:41:22;;;;;;;6.85;4.57;;;;;;;20.52;45.55;100010.22;6051027;28;20038;-73
2023/04/23 11:44:20;;;;;;;7.35;4.07;;;;;;;20.50;43.97;99998.84;6050646;28;20457;-74
2023/04/23 11:47:17;;;;;;;7.38;4.35;;;;;;;21.11;43.64;100002.13;6050888;28;20026;-74
2023/04/23 11:50:17;;;;;;;7.55;4.18;;;;;;;20.88;41.94;99980.44;6051355;28;20464;-74
2023/04/23 11:53:13;;;;;;;;;;;;;;;20.73;42.62;99999.75;6050559;28;20105;-74
2023/04/23 11:56:09;;;;;;;8.10;4.38;;;;;;;19.58;44.12;99984.56;6047822;28;19913;-72
2023/04/23 11:59:04;;;;;;;7.00;4.05;;;;;;;20.27;43.98;100006.81;6050957;28;20060;-74
2023/04/23 12:02:00;;;;;;;6.50;4.20;;;;;;;20.13;43.65;99993.50;6050545;28;20025;-74
2023/04/23 12:04:55;;;;;;;7.10;3.83;;;;;;;20.47;43.18;99997.41;6050150;28;20105;-75
2023/04/23 12:07:50;;;;;;;7.50;4.13;;;;;;;20.79;42.69;99985.34;6050134;28;20030;-74
2023/04/23 12:10:51;;;;;;;6.90;4.07;;;;;;;20.94;42.02;99974.16;6037212;28;20497;-75
2023/04/23 12:13:46;;;;;;;6.18;3.70;;;;;;;20.77;42.07;99978.53;6049952;28;20466;-74
2023/04/23 12:16:46;;;;;;;6.47;4.38;;;;;;;20.18;43.50;99974.78;6050212;28;20075;-73
2023/04/23 12:19:43;;;;;;;7.38;4.32;;;;;;;19.40;44.93;99975.66;6050478;28;20053;-74
2023/04/23 12:22:38;;;;;;;6.30;4.43;;;;;;;19.44;45.29;99987.59;6048821;28;20415;-74
2023/04/23 12:25:34;;;;;;;7.87;4.30;;;;;;;19.20;45.23;99985.72;6052027;28;20036;-74
2023/04/23 12:28:30;;;;;;;7.30;3.63;;;;;;;19.27;44.76;99970.38;6065539;28;20025;-74
2023/04/23 12:31:29;;;;;;;6.03;3.90;;;;;;;19.56;45.06;99964.31;6073918;28;20025;-73
2023/04/23 12:34:25;;;;;;;5.97;3.22;;;;;;;20.27;45.43;99966.41;6073589;28;20108;-74
2023/04/23 12:37:29;;;;;;;6.73;3.50;;;;;;;20.13;44.35;99961.19;6073239;28;20037;-75
2023/04/23 12:40:24;;;;;;;6.60;3.70;;;;;;;19.65;44.91;99960.28;6063218;28;20037;-73
2023/04/23 12:43:20;;;;;;;6.63;4.07;;;;;;;18.80;46.87;99975.28;6049297;28;20034;-74
2023/04/23 12:46:15;;;;;;;7.30;3.45;;;;;;;19.04;46.37;99970.97;6050081;28;20060;-74
2023/04/23 12:49:10;;;;;;;5.53;3.27;;;;;;;19.18;46.44;99977.88;6049886;28;20034;-74
2023/04/23 12:52:06;;;;;;;5.93;3.93;;;;;;;18.65;47.67;99958.63;6041357;28;20044;-74
2023/04/23 12:55:03;;;;;;;7.95;3.70;;;;;;;18.17;49.30;99957.44;6047082;28;20369;-72
2023/04/23 12:57:59;;;;;;;5.88;3.10;;;;;;;18.31;49.56;99948.28;6066161;28;20299;-74
2023/04/23 13:00:54;;;;;;;4.77;2.90;;;;;;;18.24;49.94;99967.09;6063771;28;20117;-73
2023/04/23 13:03:49;;;;;;;4.70;2.20;;;;;;;17.81;52.66;99964.16;6048905;28;20739;-73
2023/04/23 13:06:45;;;;;;;1.87;1.30;;;;;;;16.83;55.78;99979.47;6049019;28;20032;-73
2023/04/23 13:09:40;;;;;;;3.47;1.23;;;;;;;16.53;57.30;99979.84;6049546;28;20808;-74
2023/04/23 13:12:35;;;;;;;3.27;1.00;;;;;;;16.27;57.96;99987.78;6049626;28;20428;-74
2023/04/23 13:15:31;;;;;;;1.63;1.00;;;;;;;16.29;59.44;99966.97;6049145;28;20022;-72
2023/04/23 13:18:26;;;;;;;4.00;1.33;;;;;;;16.09;61.46;99982.13;6049691;28;20056;-72
2023/04/23 13:21:21;;;;;;;2.20;1.10;;;;;;;15.95;62.47;99964.41;6048638;28;20318;-73
2023/04/23 13:24:17;;;;;;;2.20;1.20;;;;;;;15.70;61.70;99949.88;6048736;28;20109;-74
2023/04/23 13:27:12;;;;;;;1.27;0.90;;;;;;;15.63;62.81;99943.63;6049464;28;20041;-72